Aérodrome :
LOGIN :

S'inscrire | Disclaimer

   EN    FR    IT 

 










Légende :    VFR   VFR Marginal   IFR   IFR Intensif   IFR Très Intensif
Visi : 
Plafond : 
>= 8 km
>= 3000ft
5 à 8 km
1000 à 3000 ft
1500m à 5 km
500 à 1000 ft
800 à 1500m
200 à 500 ft
< 800m
< 200 ft
Symboles :   Orages  Brouillard  Fortes neiges  Fortes précipitations  Vent > 20 kt
SIGMETs :   Divers  Orages  Givrage  Turbulence  Onde Orograph.  Cendres Volcan.






- Altitude de l'aérodrome : 14 ft
- Code IATA : BRE


EDDW - Bremen Neuenland

DERNIER METAR :
  • 200320Z 19007KT 9999 -RA BKN014 04/03 Q1015

METARs EXPIRÉS :
  • 200250Z 20008KT 9999 -RA BKN015 04/02 Q1015
  • 200220Z 21008KT 180V240 9999 FEW015 BKN022 04/02 Q1016
  • 200150Z 19008KT 9999 BKN038 04/01 Q1016
  • 200120Z 18005KT 9999 BKN038 03/01 Q1016

TAF TAF EDDW
Valide du 20 à 00h jusqu'au 21 à 00h UTC


192300Z 2000/2024 20008KT 9999 BKN030
BECMG 2001/2003 BKN012
TEMPO 2002/2010 3500 RADZ BKN007
BECMG 2009/2012 23015G25KT BKN025
TEMPO 2019/2024 4500 RA BKN012
BECMG 2021/2023 29015G30KT



MET'MAP, la Météo Aéronautique d'un coup d'oeil ! - Copyright ORBIFLY Décembre 2007 - Disclaimer

ORBIFLY MET'MAP TEAM :

Programmation & Développement : Alexandra Zaïnal
Sur une idée originale de : Baudouin d'Aumeries
Assistance à la programmation : Marc-Olivier Méhu
Soutien technique & logistique : Manuel Goepfert

Contact : metmap@orbifly.com




SOURCES & CREDITS :

   NOAA